createdAt,value
2023-03-06T00:01:50.557Z,11.19
2023-03-06T00:04:17.643Z,11.24
2023-03-06T00:06:44.811Z,11.31
2023-03-06T00:09:13.035Z,11.41
2023-03-06T00:11:40.203Z,11.51
2023-03-06T00:14:07.176Z,11.60
2023-03-06T00:16:34.190Z,11.72
2023-03-06T00:19:01.063Z,11.88
2023-03-06T00:21:28.043Z,11.98
2023-03-06T00:23:54.980Z,12.06
2023-03-06T00:26:23.584Z,12.13
2023-03-06T00:28:50.422Z,12.16
2023-03-06T00:31:17.574Z,12.19
2023-03-06T00:33:44.835Z,12.28
2023-03-06T00:36:12.136Z,12.29
2023-03-06T00:38:41.150Z,12.33
2023-03-06T00:41:10.680Z,12.33
2023-03-06T00:43:39.368Z,12.32
2023-03-06T00:46:08.340Z,12.25
2023-03-06T00:48:35.536Z,12.21
2023-03-06T00:51:27.921Z,12.08
2023-03-06T00:53:54.852Z,12.04
2023-03-06T00:56:22.049Z,12.04
2023-03-06T00:58:50.264Z,11.98
2023-03-06T01:01:17.537Z,11.86
2023-03-06T01:03:47.622Z,11.72
2023-03-06T01:06:14.520Z,11.55
2023-03-06T01:08:41.495Z,11.43
2023-03-06T01:11:08.362Z,11.31
2023-03-06T01:13:35.565Z,11.13
2023-03-06T01:16:09.691Z,11.06
2023-03-06T01:18:37.111Z,10.99
2023-03-06T01:21:05.562Z,10.89
2023-03-06T01:23:33.262Z,10.82
2023-03-06T01:26:01.203Z,10.65
2023-03-06T01:28:29.042Z,10.68
2023-03-06T01:30:56.313Z,10.63
2023-03-06T01:33:25.221Z,10.72
2023-03-06T01:35:52.197Z,10.79
2023-03-06T01:38:19.761Z,10.89
2023-03-06T01:40:46.882Z,10.90
2023-03-06T01:43:28.535Z,10.89
2023-03-06T01:46:30.151Z,10.83
2023-03-06T01:49:04.451Z,10.82
2023-03-06T01:51:37.497Z,10.88
2023-03-06T01:54:13.374Z,10.88
2023-03-06T01:56:45.682Z,10.86
2023-03-06T01:59:14.833Z,10.80
2023-03-06T02:04:25.110Z,10.76
2023-03-06T02:06:52.504Z,10.79
2023-03-06T02:09:19.501Z,10.77
2023-03-06T02:11:46.596Z,10.77
2023-03-06T02:14:17.358Z,10.68
2023-03-06T02:16:45.039Z,10.76
2023-03-06T02:19:30.414Z,10.84
2023-03-06T02:22:01.233Z,10.93
2023-03-06T02:24:38.726Z,11.10
2023-03-06T02:27:09.883Z,11.19
2023-03-06T02:29:37.840Z,11.19
2023-03-06T02:32:05.751Z,11.19
2023-03-06T02:34:54.777Z,11.28
2023-03-06T02:37:27.220Z,11.24
2023-03-06T02:40:09.860Z,11.20
2023-03-06T02:42:46.665Z,11.20
2023-03-06T02:45:22.902Z,11.20
2023-03-06T02:47:53.365Z,11.21
2023-03-06T02:50:26.914Z,11.07
2023-03-06T02:52:54.097Z,11.09
2023-03-06T02:55:21.436Z,10.97
2023-03-06T02:57:49.825Z,10.97
2023-03-06T03:00:18.849Z,10.79
2023-03-06T03:02:48.210Z,10.72
2023-03-06T03:05:18.015Z,10.72
2023-03-06T03:07:51.087Z,10.71
2023-03-06T03:10:19.565Z,10.69
2023-03-06T03:12:49.901Z,10.69
2023-03-06T03:15:18.495Z,10.65
2023-03-06T03:17:52.396Z,10.53
2023-03-06T03:20:22.203Z,10.55
2023-03-06T03:22:54.798Z,10.48
2023-03-06T03:25:23.252Z,10.45
2023-03-06T03:27:52.660Z,10.52
2023-03-06T03:30:20.361Z,10.48
2023-03-06T03:32:49.712Z,10.53
2023-03-06T03:35:17.192Z,10.53
2023-03-06T03:37:45.414Z,10.35
2023-03-06T03:40:13.887Z,10.32
2023-03-06T03:42:42.286Z,10.31
2023-03-06T03:45:16.032Z,10.35
2023-03-06T03:47:51.096Z,10.45
2023-03-06T03:50:21.935Z,10.61
2023-03-06T03:52:50.110Z,10.63
2023-03-06T03:55:17.464Z,10.69
2023-03-06T03:57:44.719Z,10.76
2023-03-06T04:00:15.581Z,10.79
2023-03-06T04:02:52.067Z,10.77
2023-03-06T04:05:28.296Z,10.79
2023-03-06T04:07:55.688Z,10.80
2023-03-06T04:10:22.800Z,10.83
2023-03-06T04:12:50.135Z,10.88
2023-03-06T04:15:19.125Z,10.96
2023-03-06T04:17:47.450Z,10.92
2023-03-06T04:20:18.456Z,10.88
2023-03-06T04:22:47.184Z,10.90
2023-03-06T04:25:14.354Z,10.90
2023-03-06T04:27:41.750Z,10.83
2023-03-06T04:30:10.767Z,10.76
2023-03-06T04:32:39.165Z,10.71
2023-03-06T04:35:06.931Z,10.66
2023-03-06T04:37:39.861Z,10.63
2023-03-06T04:40:11.004Z,10.63
2023-03-06T04:42:38.042Z,10.65
2023-03-06T04:45:06.399Z,10.62
2023-03-06T04:47:33.393Z,10.58
2023-03-06T04:50:01.791Z,10.56
2023-03-06T04:52:29.463Z,10.53
2023-03-06T04:54:56.501Z,10.42
2023-03-06T04:57:23.439Z,10.32
2023-03-06T04:59:51.090Z,10.27
2023-03-06T05:02:18.336Z,10.25
2023-03-06T05:04:45.567Z,10.18
2023-03-06T05:07:14.061Z,10.14
2023-03-06T05:09:40.896Z,10.14
2023-03-06T05:12:08.447Z,10.11
2023-03-06T05:14:35.277Z,10.11
2023-03-06T05:17:02.066Z,10.07
2023-03-06T05:19:30.076Z,10.02
2023-03-06T05:21:56.895Z,9.98
2023-03-06T05:24:25.167Z,10.05
2023-03-06T05:26:52.660Z,10.08
2023-03-06T05:29:19.716Z,10.05
2023-03-06T05:31:46.869Z,10.10
2023-03-06T05:34:14.556Z,10.14
2023-03-06T05:36:42.992Z,10.14
2023-03-06T05:39:10.112Z,10.11
2023-03-06T05:41:38.693Z,10.08
2023-03-06T05:44:05.573Z,10.05
2023-03-06T05:46:32.421Z,10.11
2023-03-06T05:48:59.592Z,10.20
2023-03-06T05:51:26.777Z,10.31
2023-03-06T05:53:53.582Z,10.39
2023-03-06T05:56:20.675Z,10.38
2023-03-06T05:58:49.067Z,10.39
2023-03-06T06:01:19.102Z,10.34
2023-03-06T06:03:46.950Z,10.25
2023-03-06T06:06:15.460Z,10.21
2023-03-06T06:08:43.514Z,10.10
2023-03-06T06:11:12.715Z,10.04
2023-03-06T06:13:40.723Z,10.02
2023-03-06T06:16:12.682Z,10.10
2023-03-06T06:18:41.656Z,10.17
2023-03-06T06:21:11.568Z,10.22
2023-03-06T06:23:38.573Z,10.21
2023-03-06T06:26:08.580Z,10.17
2023-03-06T06:28:36.646Z,10.02
2023-03-06T06:31:09.975Z,9.94
2023-03-06T06:33:36.930Z,9.81
2023-03-06T06:36:04.619Z,9.77
2023-03-06T06:38:31.520Z,9.74
2023-03-06T06:41:33.034Z,9.74
2023-03-06T06:43:45.403Z,9.74
2023-03-06T06:46:39.931Z,9.66
2023-03-06T06:49:01.068Z,9.64
2023-03-06T06:51:30.383Z,9.56
2023-03-06T06:53:57.211Z,9.39
2023-03-06T06:56:24.645Z,9.43
2023-03-06T06:58:52.264Z,9.39
2023-03-06T07:01:20.834Z,9.33
2023-03-06T07:03:48.160Z,9.38
2023-03-06T07:06:15.047Z,9.32
2023-03-06T07:08:42.210Z,9.44
2023-03-06T07:11:12.359Z,9.42
2023-03-06T07:13:39.522Z,9.44
2023-03-06T07:16:08.001Z,9.26
2023-03-06T07:18:36.412Z,9.33
2023-03-06T07:21:04.195Z,9.30
2023-03-06T07:23:31.544Z,8.98
2023-03-06T07:25:58.739Z,9.11
2023-03-06T07:28:25.631Z,9.14
2023-03-06T07:30:52.961Z,9.01
2023-03-06T07:33:20.002Z,9.25
2023-03-06T07:35:48.431Z,9.49
2023-03-06T07:38:15.283Z,9.70
2023-03-06T07:40:42.491Z,9.95
2023-03-06T07:43:19.093Z,10.08
2023-03-06T07:45:58.020Z,10.28
2023-03-06T07:48:25.547Z,10.38
2023-03-06T07:50:59.340Z,10.56
2023-03-06T07:53:27.084Z,10.63
2023-03-06T07:55:54.599Z,10.59
2023-03-06T07:58:21.717Z,10.62
2023-03-06T08:00:48.875Z,10.46
2023-03-06T08:03:16.786Z,10.44
2023-03-06T08:05:44.143Z,10.51
2023-03-06T08:08:12.869Z,10.46
2023-03-06T08:10:39.961Z,10.62
2023-03-06T08:13:07.000Z,10.71
2023-03-06T08:15:34.000Z,10.76
2023-03-06T08:18:01.019Z,10.76
2023-03-06T08:20:28.025Z,10.89
2023-03-06T08:22:55.000Z,11.13
2023-03-06T08:25:23.395Z,11.13
2023-03-06T08:27:50.355Z,11.13
2023-03-06T08:30:18.231Z,11.10
2023-03-06T08:32:45.256Z,10.88
2023-03-06T08:35:12.706Z,10.75
2023-03-06T08:37:39.765Z,10.80
2023-03-06T08:40:08.966Z,10.90
2023-03-06T08:42:37.222Z,11.00
2023-03-06T08:45:05.538Z,10.99
2023-03-06T08:47:35.076Z,11.13
2023-03-06T08:50:03.234Z,11.13
2023-03-06T08:52:30.251Z,11.10
2023-03-06T08:54:57.554Z,10.95
2023-03-06T08:57:24.759Z,10.89
2023-03-06T08:59:53.050Z,10.51
2023-03-06T09:02:20.044Z,10.61
2023-03-06T09:04:47.208Z,10.84
2023-03-06T09:07:14.095Z,10.99
2023-03-06T09:09:41.154Z,11.43
2023-03-06T09:12:08.160Z,11.74
2023-03-06T09:14:35.038Z,11.79
2023-03-06T09:17:03.260Z,11.85
2023-03-06T09:19:30.135Z,11.95
2023-03-06T09:21:57.028Z,12.21
2023-03-06T09:24:23.872Z,12.43
2023-03-06T09:26:51.813Z,12.46
2023-03-06T09:29:18.772Z,12.49
2023-03-06T09:31:46.111Z,12.53
2023-03-06T09:34:14.376Z,12.61
2023-03-06T09:36:55.575Z,12.56
2023-03-06T09:39:24.355Z,12.67
2023-03-06T09:41:52.430Z,12.79
2023-03-06T09:44:24.808Z,12.79
2023-03-06T09:47:11.262Z,12.72
2023-03-06T09:49:59.185Z,12.79
2023-03-06T09:52:36.175Z,13.04
2023-03-06T09:55:12.780Z,13.29
2023-03-06T09:57:51.069Z,13.51
2023-03-06T10:00:25.305Z,13.63
2023-03-06T10:03:07.798Z,13.65
2023-03-06T10:05:41.167Z,13.75
2023-03-06T10:08:23.927Z,13.99
2023-03-06T10:10:57.740Z,14.19
2023-03-06T10:13:32.399Z,14.52
2023-03-06T10:16:12.336Z,14.87
2023-03-06T10:18:39.785Z,15.02
2023-03-06T10:21:28.156Z,14.99
2023-03-06T10:24:07.332Z,15.12
2023-03-06T10:26:42.057Z,15.28
2023-03-06T10:29:34.031Z,15.66
2023-03-06T10:32:12.460Z,15.73
2023-03-06T10:34:42.247Z,15.89
2023-03-06T10:37:21.819Z,16.00
2023-03-06T10:39:57.167Z,16.29
2023-03-06T10:42:24.811Z,16.18
2023-03-06T10:45:08.925Z,16.22
2023-03-06T10:47:36.057Z,16.44
2023-03-06T10:50:18.886Z,16.65
2023-03-06T10:53:02.088Z,16.53
2023-03-06T10:55:32.897Z,16.52
2023-03-06T10:58:18.249Z,16.83
2023-03-06T11:00:45.794Z,16.85
2023-03-06T11:03:23.109Z,17.03
2023-03-06T11:06:09.160Z,17.23
2023-03-06T11:08:40.583Z,17.06
2023-03-06T11:11:12.534Z,17.23
2023-03-06T11:13:42.358Z,17.22
2023-03-06T11:16:26.572Z,17.22
2023-03-06T11:18:59.291Z,17.06
2023-03-06T11:21:31.491Z,17.16
2023-03-06T11:24:05.995Z,17.38
2023-03-06T11:26:41.225Z,17.19
2023-03-06T11:29:39.022Z,17.16
2023-03-06T11:32:13.563Z,16.85
2023-03-06T11:34:50.521Z,16.80
2023-03-06T11:37:40.301Z,16.76
2023-03-06T11:40:20.608Z,16.59
2023-03-06T11:45:57.879Z,16.48
2023-03-06T11:51:28.460Z,15.96
2023-03-06T11:54:00.988Z,15.98
2023-03-06T11:56:40.482Z,16.29
2023-03-06T11:59:42.246Z,16.53
2023-03-06T12:02:32.064Z,17.00
2023-03-06T12:05:27.388Z,17.10
2023-03-06T12:08:16.756Z,17.02
2023-03-06T12:10:51.973Z,17.03
2023-03-06T12:13:49.524Z,16.85
2023-03-06T12:16:42.321Z,16.59
2023-03-06T12:19:26.439Z,16.58
2023-03-06T12:22:18.627Z,16.97
2023-03-06T12:25:24.926Z,17.02
2023-03-06T12:28:30.919Z,16.97
2023-03-06T12:31:19.152Z,16.86
2023-03-06T12:34:01.255Z,16.66
2023-03-06T12:36:50.846Z,16.49
2023-03-06T12:39:26.797Z,16.49
2023-03-06T12:42:17.815Z,16.29
2023-03-06T12:45:26.791Z,16.38
2023-03-06T12:47:57.102Z,16.52
2023-03-06T12:50:27.506Z,16.51
2023-03-06T12:52:57.712Z,16.44
2023-03-06T12:55:26.128Z,16.24
2023-03-06T12:57:53.973Z,16.05
2023-03-06T13:01:04.218Z,16.25
2023-03-06T13:03:54.229Z,16.47
2023-03-06T13:06:51.346Z,16.79
2023-03-06T13:09:29.465Z,16.68
2023-03-06T13:12:38.643Z,17.07
2023-03-06T13:15:40.773Z,16.97
2023-03-06T13:18:50.858Z,16.92
2023-03-06T13:22:00.749Z,17.02
2023-03-06T13:24:30.163Z,17.09
2023-03-06T13:27:06.305Z,17.24
2023-03-06T13:30:04.467Z,17.24
2023-03-06T13:32:34.697Z,17.36
2023-03-06T13:35:46.732Z,17.28
2023-03-06T13:38:37.454Z,17.10
2023-03-06T13:41:34.074Z,16.66
2023-03-06T13:44:20.351Z,16.58
2023-03-06T13:46:58.847Z,16.53
2023-03-06T13:49:27.073Z,16.41
2023-03-06T13:52:10.162Z,16.24
2023-03-06T13:54:55.386Z,16.10
2023-03-06T13:57:49.907Z,15.96
2023-03-06T14:00:51.899Z,15.77
2023-03-06T14:04:01.215Z,15.40
2023-03-06T14:07:05.614Z,15.28
2023-03-06T14:09:38.144Z,15.33
2023-03-06T14:12:15.550Z,15.49
2023-03-06T14:14:49.719Z,15.53
2023-03-06T14:17:27.822Z,15.52
2023-03-06T14:19:57.734Z,15.52
2023-03-06T14:22:25.965Z,15.71
2023-03-06T14:25:01.798Z,15.57
2023-03-06T14:27:54.937Z,15.50
2023-03-06T14:30:26.256Z,15.52
2023-03-06T14:32:55.818Z,15.59
2023-03-06T14:35:28.218Z,15.61
2023-03-06T14:38:00.692Z,15.76
2023-03-06T14:40:35.024Z,16.04
2023-03-06T14:43:21.813Z,16.08
2023-03-06T14:45:52.240Z,16.26
2023-03-06T14:48:19.844Z,16.47
2023-03-06T14:50:55.953Z,16.58
2023-03-06T14:53:28.893Z,16.38
2023-03-06T14:55:58.405Z,16.25
2023-03-06T14:58:34.143Z,16.12
2023-03-06T15:01:06.273Z,16.17
2023-03-06T15:03:46.692Z,15.98
2023-03-06T15:06:19.266Z,15.89
2023-03-06T15:08:55.318Z,15.89
2023-03-06T15:11:22.658Z,15.69
2023-03-06T15:14:02.323Z,15.60
2023-03-06T15:16:31.270Z,15.33
2023-03-06T15:19:00.213Z,15.28
2023-03-06T15:21:36.336Z,15.06
2023-03-06T15:24:31.867Z,15.03
2023-03-06T15:27:03.055Z,15.06
2023-03-06T15:29:30.254Z,14.88
2023-03-06T15:32:31.052Z,14.88
2023-03-06T15:35:28.586Z,14.56
2023-03-06T15:37:56.558Z,14.48
2023-03-06T15:40:29.897Z,14.50
2023-03-06T15:42:58.350Z,14.42
2023-03-06T15:45:51.437Z,14.27
2023-03-06T15:48:18.701Z,14.24
2023-03-06T15:50:45.778Z,14.23
2023-03-06T15:53:12.573Z,14.19
2023-03-06T15:55:41.473Z,14.14
2023-03-06T15:58:17.317Z,14.20
2023-03-06T16:00:44.334Z,14.21
2023-03-06T16:03:12.393Z,14.31
2023-03-06T16:05:39.408Z,14.37
2023-03-06T16:08:07.118Z,14.42
2023-03-06T16:10:39.174Z,14.48
2023-03-06T16:13:15.061Z,14.40
2023-03-06T16:15:48.562Z,14.37
2023-03-06T16:18:16.410Z,14.40
2023-03-06T16:20:43.419Z,14.42
2023-03-06T16:23:11.024Z,14.57
2023-03-06T16:25:41.283Z,14.63
2023-03-06T16:28:14.628Z,14.65
2023-03-06T16:30:44.001Z,14.63
2023-03-06T16:33:11.674Z,14.54
2023-03-06T16:35:39.356Z,14.45
2023-03-06T16:38:06.860Z,14.44
2023-03-06T16:40:38.573Z,14.38
2023-03-06T16:43:05.575Z,14.27
2023-03-06T16:45:37.184Z,14.23
2023-03-06T16:48:05.062Z,14.17
2023-03-06T16:50:40.293Z,14.13
2023-03-06T16:53:08.070Z,14.06
2023-03-06T16:55:35.214Z,14.07
2023-03-06T16:58:02.398Z,14.06
2023-03-06T17:00:31.368Z,14.02
2023-03-06T17:03:01.466Z,13.95
2023-03-06T17:05:32.060Z,13.82
2023-03-06T17:07:58.899Z,13.69
2023-03-06T17:10:26.034Z,13.69
2023-03-06T17:12:53.472Z,13.69
2023-03-06T17:15:21.187Z,13.69
2023-03-06T17:17:48.238Z,13.69
2023-03-06T17:20:16.416Z,13.68
2023-03-06T17:22:43.512Z,13.65
2023-03-06T17:25:11.335Z,13.65
2023-03-06T17:27:38.593Z,13.62
2023-03-06T17:30:07.432Z,13.63
2023-03-06T17:32:34.657Z,13.52
2023-03-06T17:35:01.770Z,13.52
2023-03-06T17:37:31.590Z,13.55
2023-03-06T17:39:59.086Z,13.55
2023-03-06T17:42:27.256Z,13.59
2023-03-06T17:44:54.234Z,13.68
2023-03-06T17:47:21.393Z,13.73
2023-03-06T17:49:48.817Z,13.75
2023-03-06T17:52:18.848Z,13.76
2023-03-06T17:54:47.200Z,13.73
2023-03-06T17:57:17.208Z,13.68
2023-03-06T17:59:44.134Z,13.59
2023-03-06T18:02:11.685Z,13.51
2023-03-06T18:04:39.448Z,13.42
2023-03-06T18:07:06.625Z,13.39
2023-03-06T18:09:33.711Z,13.31
2023-03-06T18:12:02.019Z,13.29
2023-03-06T18:14:28.917Z,13.31
2023-03-06T18:16:55.775Z,13.31
2023-03-06T18:19:22.670Z,13.29
2023-03-06T18:21:49.502Z,13.31
2023-03-06T18:24:16.463Z,13.29
2023-03-06T18:26:43.387Z,13.21
2023-03-06T18:29:12.763Z,13.07
2023-03-06T18:31:42.120Z,12.97
2023-03-06T18:34:11.858Z,12.86
2023-03-06T18:36:40.332Z,12.80
2023-03-06T18:39:11.579Z,12.81
2023-03-06T18:41:39.021Z,12.79
2023-03-06T18:44:06.640Z,12.81
2023-03-06T18:46:37.658Z,12.83
2023-03-06T18:49:05.930Z,12.83
2023-03-06T18:51:33.719Z,12.80
2023-03-06T18:54:02.840Z,12.81
2023-03-06T18:56:30.217Z,12.76
2023-03-06T18:59:01.582Z,12.63
2023-03-06T19:01:28.568Z,12.47
2023-03-06T19:03:59.644Z,12.45
2023-03-06T19:06:27.970Z,12.35
2023-03-06T19:08:55.788Z,12.35
2023-03-06T19:11:22.685Z,12.39
2023-03-06T19:13:50.013Z,12.33
2023-03-06T19:16:20.054Z,12.32
2023-03-06T19:18:47.068Z,12.36
2023-03-06T19:21:19.138Z,12.29
2023-03-06T19:23:49.198Z,12.32
2023-03-06T19:26:17.530Z,12.25
2023-03-06T19:28:45.732Z,12.23
2023-03-06T19:31:16.013Z,12.19
2023-03-06T19:33:43.401Z,12.16
2023-03-06T19:36:13.531Z,12.22
2023-03-06T19:38:42.618Z,12.15
2023-03-06T19:41:11.913Z,12.15
2023-03-06T19:46:31.425Z,12.08
2023-03-06T19:49:01.309Z,12.08
2023-03-06T19:51:28.974Z,12.04
2023-03-06T19:53:57.981Z,12.02
2023-03-06T19:56:28.449Z,11.88
2023-03-06T19:58:55.607Z,11.74
2023-03-06T20:01:25.654Z,11.74
2023-03-06T20:03:54.726Z,11.74
2023-03-06T20:06:21.668Z,11.51
2023-03-06T20:08:50.056Z,11.51
2023-03-06T20:11:21.438Z,11.43
2023-03-06T20:13:48.839Z,11.45
2023-03-06T20:16:16.460Z,11.44
2023-03-06T20:18:43.787Z,11.40
2023-03-06T20:21:10.962Z,11.44
2023-03-06T20:23:37.870Z,11.43
2023-03-06T20:26:08.012Z,11.33
2023-03-06T20:28:38.681Z,11.21
2023-03-06T20:31:08.356Z,11.19
2023-03-06T20:33:35.550Z,11.09
2023-03-06T20:36:10.471Z,10.97
2023-03-06T20:38:37.552Z,10.99
2023-03-06T20:41:04.953Z,10.99
2023-03-06T20:43:31.836Z,10.99
2023-03-06T20:46:03.274Z,10.73
2023-03-06T20:48:30.317Z,10.56
2023-03-06T20:51:05.401Z,10.53
2023-03-06T20:53:32.524Z,10.39
2023-03-06T20:55:59.356Z,10.34
2023-03-06T20:58:27.733Z,10.52
2023-03-06T21:00:55.023Z,10.41
2023-03-06T21:03:23.388Z,10.53
2023-03-06T21:05:50.498Z,10.48
2023-03-06T21:08:17.444Z,10.55
2023-03-06T21:10:50.484Z,10.11
2023-03-06T21:13:20.956Z,10.25
2023-03-06T21:15:47.917Z,10.02
2023-03-06T21:18:14.987Z,9.94
2023-03-06T21:20:43.214Z,10.21
2023-03-06T21:23:10.338Z,10.12
2023-03-06T21:25:37.732Z,10.17
2023-03-06T21:28:04.972Z,10.05
2023-03-06T21:30:32.201Z,10.18
2023-03-06T21:32:59.204Z,10.37
2023-03-06T21:35:26.378Z,10.12
2023-03-06T21:37:54.723Z,10.20
2023-03-06T21:40:22.020Z,10.22
2023-03-06T21:42:49.104Z,9.95
2023-03-06T21:45:44.870Z,10.01
2023-03-06T21:48:12.287Z,9.98
2023-03-06T21:50:39.300Z,9.93
2023-03-06T21:53:08.261Z,9.79
2023-03-06T21:55:39.367Z,9.94
2023-03-06T21:58:06.525Z,9.80
2023-03-06T22:00:33.722Z,9.59
2023-03-06T22:03:00.544Z,9.98
2023-03-06T22:05:27.511Z,10.02
2023-03-06T22:07:54.382Z,9.97
2023-03-06T22:10:22.808Z,9.91
2023-03-06T22:12:49.917Z,9.59
2023-03-06T22:15:17.074Z,9.44
2023-03-06T22:17:43.970Z,9.49
2023-03-06T22:20:12.814Z,9.76
2023-03-06T22:22:39.675Z,9.67
2023-03-06T22:25:08.175Z,9.84
2023-03-06T22:27:36.668Z,9.83
2023-03-06T22:30:05.489Z,9.73
2023-03-06T22:32:32.583Z,9.86
2023-03-06T22:34:59.431Z,9.61
2023-03-06T22:37:26.533Z,9.67
2023-03-06T22:39:53.328Z,9.93
2023-03-06T22:42:20.299Z,9.90
2023-03-06T22:44:48.518Z,9.80
2023-03-06T22:47:16.084Z,9.87
2023-03-06T22:49:43.091Z,9.93
2023-03-06T22:52:10.001Z,9.90
2023-03-06T22:54:37.354Z,10.04
2023-03-06T22:57:04.711Z,9.81
2023-03-06T22:59:31.684Z,9.87
2023-03-06T23:01:59.910Z,9.95
2023-03-06T23:04:26.906Z,10.04
2023-03-06T23:06:54.294Z,10.02
2023-03-06T23:09:22.760Z,9.87
2023-03-06T23:12:08.649Z,9.64
2023-03-06T23:14:54.449Z,9.69
2023-03-06T23:17:41.047Z,9.67
2023-03-06T23:20:26.761Z,9.35
2023-03-06T23:23:12.902Z,9.30
2023-03-06T23:25:43.187Z,9.32
2023-03-06T23:28:10.834Z,9.22
2023-03-06T23:30:38.470Z,9.20
2023-03-06T23:33:07.832Z,8.85
2023-03-06T23:35:35.786Z,9.02
2023-03-06T23:38:02.787Z,8.99
2023-03-06T23:40:33.568Z,9.09
2023-03-06T23:45:55.471Z,9.30
2023-03-06T23:51:18.856Z,9.15
2023-03-06T23:53:49.588Z,9.15
2023-03-06T23:56:16.879Z,8.98
2023-03-06T23:58:43.912Z,9.01
